createdAt,value
2018-12-07T00:00:43.055Z,1009.49
2018-12-07T00:01:40.318Z,1009.46
2018-12-07T00:03:38.174Z,1009.41
2018-12-07T00:04:37.609Z,1009.44
2018-12-07T00:06:34.694Z,1009.40
2018-12-07T00:07:33.075Z,1009.32
2018-12-07T00:09:33.407Z,1009.31
2018-12-07T00:10:32.159Z,1009.36
2018-12-07T00:12:32.572Z,1009.44
2018-12-07T00:13:32.274Z,1009.26
2018-12-07T00:15:29.532Z,1009.37
2018-12-07T00:16:28.074Z,1009.29
2018-12-07T00:18:28.442Z,1009.29
2018-12-07T00:19:27.121Z,1009.27
2018-12-07T00:21:29.195Z,1009.20
2018-12-07T00:22:28.394Z,1009.28
2018-12-07T00:23:28.261Z,1009.24
2018-12-07T00:24:29.542Z,1009.30
2018-12-07T00:25:27.959Z,1009.25
2018-12-07T00:26:39.746Z,1009.27
2018-12-07T00:28:28.684Z,1009.20
2018-12-07T00:29:28.558Z,1009.25
2018-12-07T00:31:32.634Z,1009.28
2018-12-07T00:32:31.896Z,1009.14
2018-12-07T00:34:29.718Z,1009.15
2018-12-07T00:35:29.542Z,1009.15
2018-12-07T00:37:24.418Z,1009.16
2018-12-07T00:38:23.878Z,1009.08
2018-12-07T00:40:26.788Z,1009.04
2018-12-07T00:41:26.676Z,1009.03
2018-12-07T00:43:31.803Z,1009.01
2018-12-07T00:44:31.581Z,1009.01
2018-12-07T00:45:31.651Z,1008.97
2018-12-07T00:46:32.836Z,1008.94
2018-12-07T00:47:31.509Z,1008.96
2018-12-07T00:48:31.430Z,1008.93
2018-12-07T00:49:31.388Z,1008.92
2018-12-07T00:50:31.393Z,1008.92
2018-12-07T00:51:41.979Z,1008.91
2018-12-07T00:53:32.929Z,1008.90
2018-12-07T00:54:32.829Z,1008.86
2018-12-07T00:56:36.598Z,1008.80
2018-12-07T00:57:35.675Z,1008.80
2018-12-07T00:58:36.603Z,1008.86
2018-12-07T00:59:35.498Z,1008.76
2018-12-07T01:00:35.456Z,1008.82
2018-12-07T01:01:35.360Z,1008.80
2018-12-07T01:02:35.383Z,1008.79
2018-12-07T01:03:35.417Z,1008.76
2018-12-07T01:04:35.304Z,1008.79
2018-12-07T01:05:35.308Z,1008.76
2018-12-07T01:06:35.277Z,1008.82
2018-12-07T01:07:35.211Z,1008.76
2018-12-07T01:08:35.215Z,1008.77
2018-12-07T01:09:35.125Z,1008.75
2018-12-07T01:10:35.123Z,1008.74
2018-12-07T01:11:35.114Z,1008.70
2018-12-07T01:12:35.082Z,1008.67
2018-12-07T01:13:35.085Z,1008.73
2018-12-07T01:14:34.980Z,1008.72
2018-12-07T01:15:34.962Z,1008.71
2018-12-07T01:16:34.961Z,1008.85
2018-12-07T01:17:34.960Z,1008.74
2018-12-07T01:18:34.885Z,1008.79
2018-12-07T01:19:34.887Z,1008.72
2018-12-07T01:20:34.868Z,1008.67
2018-12-07T01:21:34.798Z,1008.70
2018-12-07T01:22:34.819Z,1008.71
2018-12-07T01:23:34.713Z,1008.70
2018-12-07T01:24:34.667Z,1008.66
2018-12-07T01:25:34.639Z,1008.63
2018-12-07T01:26:34.765Z,1008.67
2018-12-07T01:27:34.607Z,1008.63
2018-12-07T01:28:34.537Z,1008.64
2018-12-07T01:29:34.550Z,1008.64
2018-12-07T01:30:34.434Z,1008.58
2018-12-07T01:31:34.458Z,1008.68
2018-12-07T01:32:34.455Z,1008.57
2018-12-07T01:33:34.494Z,1008.51
2018-12-07T01:34:34.387Z,1008.53
2018-12-07T01:35:34.300Z,1008.45
2018-12-07T01:36:34.379Z,1008.55
2018-12-07T01:37:34.268Z,1008.54
2018-12-07T01:38:34.263Z,1008.63
2018-12-07T01:39:34.224Z,1008.48
2018-12-07T01:40:34.217Z,1008.48
2018-12-07T01:41:34.106Z,1008.48
2018-12-07T01:42:34.087Z,1008.52
2018-12-07T01:43:34.074Z,1008.51
2018-12-07T01:44:34.040Z,1008.51
2018-12-07T01:45:33.989Z,1008.45
2018-12-07T01:46:33.982Z,1008.44
2018-12-07T01:47:34.011Z,1008.45
2018-12-07T01:48:33.959Z,1008.36
2018-12-07T01:49:33.930Z,1008.38
2018-12-07T01:50:33.864Z,1008.40
2018-12-07T01:51:33.855Z,1008.38
2018-12-07T01:52:33.777Z,1008.40
2018-12-07T01:53:33.780Z,1008.31
2018-12-07T01:54:33.764Z,1008.36
2018-12-07T01:55:33.768Z,1008.31
2018-12-07T01:56:33.689Z,1008.29
2018-12-07T01:57:33.591Z,1008.31
2018-12-07T01:58:53.004Z,1008.27
2018-12-07T01:59:33.693Z,1008.23
2018-12-07T02:00:33.710Z,1008.29
2018-12-07T02:01:34.116Z,1008.30
2018-12-07T02:02:33.468Z,1008.24
2018-12-07T02:03:33.432Z,1008.28
2018-12-07T02:04:33.434Z,1008.26
2018-12-07T02:05:33.376Z,1008.29
2018-12-07T02:06:33.375Z,1008.28
2018-12-07T02:07:33.253Z,1008.24
2018-12-07T02:08:53.682Z,1008.27
2018-12-07T02:09:33.272Z,1008.29
2018-12-07T02:10:33.173Z,1008.22
2018-12-07T02:11:33.194Z,1008.19
2018-12-07T02:12:33.307Z,1008.29
2018-12-07T02:14:03.294Z,1008.23
2018-12-07T02:15:41.284Z,1008.11
2018-12-07T02:17:14.754Z,1008.11
2018-12-07T02:18:51.743Z,1008.07
2018-12-07T02:19:51.253Z,1008.07
2018-12-07T02:22:02.015Z,1008.00
2018-12-07T02:23:01.553Z,1008.01
2018-12-07T02:25:17.970Z,1007.99
2018-12-07T02:26:17.401Z,1007.95
2018-12-07T02:28:27.735Z,1007.92
2018-12-07T02:29:27.667Z,1007.91
2018-12-07T02:31:32.595Z,1007.89
2018-12-07T02:32:32.445Z,1007.98
2018-12-07T02:33:32.772Z,1007.91
2018-12-07T02:34:32.312Z,1007.89
2018-12-07T02:35:32.267Z,1007.85
2018-12-07T02:36:32.231Z,1007.83
2018-12-07T02:37:32.196Z,1007.85
2018-12-07T02:38:32.201Z,1007.90
2018-12-07T02:39:32.148Z,1007.92
2018-12-07T02:40:32.107Z,1007.80
2018-12-07T02:41:32.075Z,1007.88
2018-12-07T02:42:32.061Z,1007.82
2018-12-07T02:43:32.013Z,1007.83
2018-12-07T02:44:31.979Z,1007.92
2018-12-07T02:45:31.953Z,1007.89
2018-12-07T02:46:31.910Z,1007.81
2018-12-07T02:47:31.885Z,1007.82
2018-12-07T02:48:31.854Z,1007.86
2018-12-07T02:49:31.825Z,1007.78
2018-12-07T02:50:31.798Z,1007.78
2018-12-07T02:51:31.754Z,1007.78
2018-12-07T02:52:31.737Z,1007.72
2018-12-07T02:53:31.694Z,1007.78
2018-12-07T02:54:31.727Z,1007.81
2018-12-07T02:55:31.631Z,1007.78
2018-12-07T02:56:31.612Z,1007.64
2018-12-07T02:57:31.573Z,1007.79
2018-12-07T02:58:31.549Z,1007.72
2018-12-07T02:59:31.500Z,1007.69
2018-12-07T03:00:31.467Z,1007.65
2018-12-07T03:01:31.443Z,1007.61
2018-12-07T03:02:31.408Z,1007.61
2018-12-07T03:03:31.380Z,1007.62
2018-12-07T03:04:31.356Z,1007.54
2018-12-07T03:05:31.325Z,1007.58
2018-12-07T03:06:31.275Z,1007.58
2018-12-07T03:07:31.253Z,1007.48
2018-12-07T03:08:31.213Z,1007.53
2018-12-07T03:09:31.180Z,1007.48
2018-12-07T03:10:31.161Z,1007.46
2018-12-07T03:11:31.123Z,1007.44
2018-12-07T03:12:31.092Z,1007.48
2018-12-07T03:13:31.071Z,1007.43
2018-12-07T03:14:49.873Z,1007.43
2018-12-07T03:16:28.981Z,1007.35
2018-12-07T03:17:28.865Z,1007.33
2018-12-07T03:19:37.055Z,1007.38
2018-12-07T03:20:36.662Z,1007.37
2018-12-07T03:22:41.219Z,1007.25
2018-12-07T03:23:40.995Z,1007.28
2018-12-07T03:25:49.118Z,1007.32
2018-12-07T03:27:09.291Z,1007.23
2018-12-07T03:28:52.172Z,1007.23
2018-12-07T03:29:52.066Z,1007.22
2018-12-07T03:31:59.992Z,1007.17
2018-12-07T03:32:59.863Z,1007.22
2018-12-07T03:35:10.679Z,1007.14
2018-12-07T03:36:10.181Z,1007.19
2018-12-07T03:38:23.032Z,1007.16
2018-12-07T03:39:22.959Z,1007.07
2018-12-07T03:41:23.557Z,1007.09
2018-12-07T03:42:23.335Z,1007.03
2018-12-07T03:44:17.360Z,1007.01
2018-12-07T03:45:17.123Z,1007.02
2018-12-07T03:47:27.521Z,1007.00
2018-12-07T03:48:27.444Z,1007.03
2018-12-07T03:50:30.639Z,1006.98
2018-12-07T03:51:30.354Z,1006.95
2018-12-07T03:52:30.187Z,1006.99
2018-12-07T03:53:30.179Z,1006.88
2018-12-07T03:54:30.250Z,1006.94
2018-12-07T03:55:30.401Z,1007.00
2018-12-07T03:56:30.023Z,1006.92
2018-12-07T03:57:29.989Z,1006.92
2018-12-07T03:58:29.973Z,1006.90
2018-12-07T03:59:29.920Z,1006.83
2018-12-07T04:00:29.979Z,1006.81
2018-12-07T04:01:29.860Z,1006.83
2018-12-07T04:02:29.826Z,1006.79
2018-12-07T04:03:29.846Z,1006.77
2018-12-07T04:04:29.769Z,1006.74
2018-12-07T04:05:29.733Z,1006.76
2018-12-07T04:06:29.702Z,1006.83
2018-12-07T04:07:29.665Z,1006.82
2018-12-07T04:08:29.631Z,1006.71
2018-12-07T04:09:29.608Z,1006.75
2018-12-07T04:10:29.578Z,1006.74
2018-12-07T04:11:29.547Z,1006.71
2018-12-07T04:12:29.511Z,1006.72
2018-12-07T04:13:29.474Z,1006.60
2018-12-07T04:14:29.450Z,1006.65
2018-12-07T04:15:29.417Z,1006.66
2018-12-07T04:16:29.416Z,1006.75
2018-12-07T04:17:29.354Z,1006.66
2018-12-07T04:18:29.319Z,1006.67
2018-12-07T04:19:29.336Z,1006.62
2018-12-07T04:20:29.257Z,1006.65
2018-12-07T04:21:29.220Z,1006.59
2018-12-07T04:22:29.185Z,1006.57
2018-12-07T04:23:29.165Z,1006.55
2018-12-07T04:24:51.644Z,1006.53
2018-12-07T04:26:36.235Z,1006.58
2018-12-07T04:27:36.055Z,1006.59
2018-12-07T04:29:49.258Z,1006.59
2018-12-07T04:30:48.821Z,1006.52
2018-12-07T04:32:54.317Z,1006.48
2018-12-07T04:33:54.378Z,1006.48
2018-12-07T04:36:07.046Z,1006.48
2018-12-07T04:37:20.533Z,1006.49
2018-12-07T04:39:06.053Z,1006.45
2018-12-07T04:40:06.497Z,1006.47
2018-12-07T04:42:12.008Z,1006.40
2018-12-07T04:43:11.829Z,1006.42
2018-12-07T04:45:15.427Z,1006.40
2018-12-07T04:46:15.213Z,1006.35
2018-12-07T04:48:25.932Z,1006.33
2018-12-07T04:49:25.433Z,1006.40
2018-12-07T04:51:46.328Z,1006.32
2018-12-07T04:52:31.469Z,1006.29
2018-12-07T04:54:35.993Z,1006.29
2018-12-07T04:55:35.742Z,1006.27
2018-12-07T04:57:36.269Z,1006.23
2018-12-07T04:58:35.897Z,1006.27
2018-12-07T05:00:46.315Z,1006.22
2018-12-07T05:01:46.164Z,1006.22
2018-12-07T05:03:40.440Z,1006.23
2018-12-07T05:04:40.142Z,1006.23
2018-12-07T05:06:43.688Z,1006.22
2018-12-07T05:07:43.642Z,1006.17
2018-12-07T05:09:38.677Z,1006.10
2018-12-07T05:10:38.350Z,1006.11
2018-12-07T05:12:43.153Z,1006.09
2018-12-07T05:13:43.341Z,1006.06
2018-12-07T05:14:42.972Z,1006.01
2018-12-07T05:15:42.977Z,1006.04
2018-12-07T05:16:42.948Z,1006.03
2018-12-07T05:17:43.744Z,1006.03
2018-12-07T05:18:42.727Z,1006.00
2018-12-07T05:20:02.218Z,1005.94
2018-12-07T05:21:39.798Z,1005.97
2018-12-07T05:22:39.176Z,1005.95
2018-12-07T05:24:42.181Z,1005.94
2018-12-07T05:25:42.253Z,1005.97
2018-12-07T05:27:49.609Z,1005.87
2018-12-07T05:28:49.611Z,1005.87
2018-12-07T05:29:49.554Z,1005.85
2018-12-07T05:30:49.733Z,1005.87
2018-12-07T05:31:49.300Z,1005.87
2018-12-07T05:32:49.270Z,1005.83
2018-12-07T05:33:49.251Z,1005.85
2018-12-07T05:34:49.206Z,1005.82
2018-12-07T05:35:49.179Z,1005.85
2018-12-07T05:36:49.207Z,1005.77
2018-12-07T05:37:49.116Z,1005.78
2018-12-07T05:38:49.075Z,1005.74
2018-12-07T05:39:49.041Z,1005.88
2018-12-07T05:40:49.029Z,1005.77
2018-12-07T05:41:49.008Z,1005.74
2018-12-07T05:42:48.948Z,1005.76
2018-12-07T05:43:48.920Z,1005.66
2018-12-07T05:44:48.882Z,1005.62
2018-12-07T05:45:48.855Z,1005.62
2018-12-07T05:46:48.834Z,1005.62
2018-12-07T05:47:48.792Z,1005.55
2018-12-07T05:48:48.764Z,1005.60
2018-12-07T05:49:48.727Z,1005.53
2018-12-07T05:50:48.693Z,1005.55
2018-12-07T05:51:48.664Z,1005.55
2018-12-07T05:52:48.626Z,1005.51
2018-12-07T05:53:48.601Z,1005.56
2018-12-07T05:54:48.576Z,1005.54
2018-12-07T05:55:48.542Z,1005.54
2018-12-07T05:56:48.501Z,1005.46
2018-12-07T05:57:48.475Z,1005.44
2018-12-07T05:58:48.468Z,1005.42
2018-12-07T05:59:48.418Z,1005.38
2018-12-07T06:00:48.380Z,1005.45
2018-12-07T06:01:48.349Z,1005.43
2018-12-07T06:02:48.319Z,1005.42
2018-12-07T06:03:48.276Z,1005.42
2018-12-07T06:04:48.245Z,1005.38
2018-12-07T06:05:48.219Z,1005.38
2018-12-07T06:06:48.186Z,1005.37
2018-12-07T06:07:48.156Z,1005.35
2018-12-07T06:08:48.130Z,1005.34
2018-12-07T06:09:48.087Z,1005.35
2018-12-07T06:10:48.055Z,1005.32
2018-12-07T06:11:48.018Z,1005.32
2018-12-07T06:12:48.000Z,1005.35
2018-12-07T06:13:47.964Z,1005.29
2018-12-07T06:14:47.927Z,1005.23
2018-12-07T06:15:47.894Z,1005.24
2018-12-07T06:16:47.893Z,1005.15
2018-12-07T06:17:47.831Z,1005.19
2018-12-07T06:18:47.904Z,1005.32
2018-12-07T06:19:47.769Z,1005.22
2018-12-07T06:20:47.748Z,1005.21
2018-12-07T06:21:47.708Z,1005.19
2018-12-07T06:22:47.689Z,1005.21
2018-12-07T06:23:47.636Z,1005.14
2018-12-07T06:24:47.602Z,1005.14
2018-12-07T06:25:47.598Z,1005.16
2018-12-07T06:26:47.546Z,1005.11
2018-12-07T06:27:47.519Z,1005.17
2018-12-07T06:28:47.476Z,1005.15
2018-12-07T06:29:47.446Z,1005.18
2018-12-07T06:30:47.414Z,1005.18
2018-12-07T06:31:47.419Z,1005.11
2018-12-07T06:32:47.445Z,1005.08
2018-12-07T06:33:47.393Z,1005.11
2018-12-07T06:34:47.353Z,1005.06
2018-12-07T06:35:47.316Z,1005.03
2018-12-07T06:36:47.280Z,1005.07
2018-12-07T06:37:47.218Z,1005.05
2018-12-07T06:38:47.228Z,1005.07
2018-12-07T06:39:47.173Z,1005.02
2018-12-07T06:40:47.170Z,1005.03
2018-12-07T06:41:47.122Z,1005.06
2018-12-07T06:42:47.099Z,1004.94
2018-12-07T06:43:47.037Z,1004.98
2018-12-07T06:44:47.695Z,1005.01
2018-12-07T06:45:46.981Z,1004.98
2018-12-07T06:46:46.971Z,1004.92
2018-12-07T06:47:46.933Z,1004.92
2018-12-07T06:48:46.899Z,1004.93
2018-12-07T06:49:46.865Z,1004.91
2018-12-07T06:50:46.841Z,1004.97
2018-12-07T06:51:46.814Z,1004.89
2018-12-07T06:52:46.778Z,1004.87
2018-12-07T06:53:46.758Z,1004.95
2018-12-07T06:54:46.707Z,1004.92
2018-12-07T06:55:46.681Z,1004.92
2018-12-07T06:56:46.641Z,1004.88
2018-12-07T06:57:48.176Z,1004.93
2018-12-07T06:58:46.607Z,1004.85
2018-12-07T06:59:46.550Z,1004.85
2018-12-07T07:00:46.510Z,1004.84
2018-12-07T07:01:46.503Z,1004.85
2018-12-07T07:02:46.454Z,1004.86
2018-12-07T07:03:46.429Z,1004.84
2018-12-07T07:04:46.385Z,1004.78
2018-12-07T07:05:46.339Z,1004.76
2018-12-07T07:06:46.363Z,1004.78
2018-12-07T07:07:46.308Z,1004.81
2018-12-07T07:08:46.245Z,1004.72
2018-12-07T07:09:46.211Z,1004.72
2018-12-07T07:10:46.209Z,1004.69
2018-12-07T07:11:46.164Z,1004.77
2018-12-07T07:12:46.126Z,1004.75
2018-12-07T07:13:46.106Z,1004.69
2018-12-07T07:14:46.066Z,1004.76
2018-12-07T07:15:46.025Z,1004.65
2018-12-07T07:16:45.994Z,1004.66
2018-12-07T07:17:45.974Z,1004.61
2018-12-07T07:18:45.933Z,1004.68
2018-12-07T07:19:45.899Z,1004.60
2018-12-07T07:20:45.854Z,1004.67
2018-12-07T07:21:45.824Z,1004.48
2018-12-07T07:22:45.808Z,1004.64
2018-12-07T07:23:45.777Z,1004.59
2018-12-07T07:24:45.959Z,1004.55
2018-12-07T07:25:45.695Z,1004.54
2018-12-07T07:26:45.679Z,1004.50
2018-12-07T07:27:45.638Z,1004.56
2018-12-07T07:28:45.612Z,1004.50
2018-12-07T07:29:45.584Z,1004.44
2018-12-07T07:30:45.559Z,1004.43
2018-12-07T07:31:45.522Z,1004.42
2018-12-07T07:32:45.490Z,1004.41
2018-12-07T07:33:45.400Z,1004.42
2018-12-07T07:34:45.367Z,1004.39
2018-12-07T07:35:45.339Z,1004.34
2018-12-07T07:36:45.339Z,1004.34
2018-12-07T07:37:45.277Z,1004.44
2018-12-07T07:38:45.245Z,1004.34
2018-12-07T07:39:45.225Z,1004.43
2018-12-07T07:40:45.171Z,1004.33
2018-12-07T07:41:45.142Z,1004.35
2018-12-07T07:42:45.114Z,1004.34
2018-12-07T07:43:45.949Z,1004.41
2018-12-07T07:44:45.102Z,1004.35
2018-12-07T07:45:45.018Z,1004.35
2018-12-07T07:46:44.990Z,1004.34
2018-12-07T07:47:44.954Z,1004.32
2018-12-07T07:48:44.923Z,1004.33
2018-12-07T07:49:44.898Z,1004.32
2018-12-07T07:50:44.855Z,1004.35
2018-12-07T07:51:44.872Z,1004.32
2018-12-07T07:53:02.387Z,1004.32
2018-12-07T07:54:41.383Z,1004.30
2018-12-07T07:55:40.819Z,1004.31
2018-12-07T07:56:40.851Z,1004.37
2018-12-07T07:57:41.045Z,1004.33
2018-12-07T07:58:40.645Z,1004.35
2018-12-07T07:59:40.618Z,1004.33
2018-12-07T08:00:40.576Z,1004.23
2018-12-07T08:01:40.533Z,1004.32
2018-12-07T08:02:40.535Z,1004.22
2018-12-07T08:03:40.485Z,1004.26
2018-12-07T08:04:40.413Z,1004.25
2018-12-07T08:05:40.430Z,1004.27
2018-12-07T08:06:40.378Z,1004.27
2018-12-07T08:07:40.439Z,1004.17
2018-12-07T08:08:40.335Z,1004.20
2018-12-07T08:09:40.264Z,1004.19
2018-12-07T08:10:40.296Z,1004.18
2018-12-07T08:11:40.241Z,1004.15
2018-12-07T08:12:40.182Z,1004.11
2018-12-07T08:13:40.146Z,1004.10
2018-12-07T08:14:40.176Z,1004.15
2018-12-07T08:15:40.084Z,1004.13
2018-12-07T08:16:40.107Z,1004.09
2018-12-07T08:17:40.015Z,1004.12
2018-12-07T08:18:39.999Z,1004.08
2018-12-07T08:19:40.009Z,1004.09
2018-12-07T08:20:41.748Z,1004.05
2018-12-07T08:21:40.022Z,1004.02
2018-12-07T08:22:41.774Z,1004.08
2018-12-07T08:23:39.863Z,1004.06
2018-12-07T08:24:39.787Z,1004.03
2018-12-07T08:25:39.775Z,1004.20
2018-12-07T08:26:39.729Z,1004.02
2018-12-07T08:27:39.725Z,1004.00
2018-12-07T08:28:39.692Z,1003.88
2018-12-07T08:29:39.669Z,1003.99
2018-12-07T08:30:39.616Z,1003.93
2018-12-07T08:31:39.581Z,1003.99
2018-12-07T08:32:39.513Z,1003.87
2018-12-07T08:33:39.519Z,1003.91
2018-12-07T08:34:39.512Z,1003.87
2018-12-07T08:35:39.536Z,1003.88
2018-12-07T08:36:39.399Z,1003.83
2018-12-07T08:37:39.342Z,1003.90
2018-12-07T08:38:39.314Z,1003.83
2018-12-07T08:39:39.364Z,1003.85
2018-12-07T08:40:39.246Z,1003.85
2018-12-07T08:41:39.235Z,1003.80
2018-12-07T08:42:39.179Z,1003.81
2018-12-07T08:43:39.175Z,1003.72
2018-12-07T08:44:39.158Z,1003.74
2018-12-07T08:46:06.656Z,1003.75
2018-12-07T08:47:42.594Z,1003.68
2018-12-07T08:48:42.809Z,1003.66
2018-12-07T08:50:51.069Z,1003.68
2018-12-07T08:51:49.179Z,1003.60
2018-12-07T08:52:48.476Z,1003.62
2018-12-07T08:53:48.401Z,1003.57
2018-12-07T08:54:48.317Z,1003.53
2018-12-07T08:55:48.467Z,1003.75
2018-12-07T08:56:49.688Z,1003.53
2018-12-07T08:57:49.029Z,1003.52
2018-12-07T08:58:49.981Z,1003.46
2018-12-07T08:59:48.971Z,1003.46
2018-12-07T09:00:48.884Z,1003.45
2018-12-07T09:01:49.330Z,1003.49
2018-12-07T09:02:48.577Z,1003.46
2018-12-07T09:03:57.714Z,1003.40
2018-12-07T09:06:36.553Z,1003.32
2018-12-07T09:11:23.690Z,1003.27
2018-12-07T09:17:58.201Z,1003.14
2018-12-07T09:21:10.326Z,1003.12
2018-12-07T09:25:48.922Z,1002.96
2018-12-07T09:26:49.314Z,1002.97
2018-12-07T09:30:28.621Z,1003.00
2018-12-07T09:31:28.180Z,1002.92
2018-12-07T09:33:39.213Z,1002.88
2018-12-07T09:34:39.032Z,1002.88
2018-12-07T09:35:38.056Z,1002.90
2018-12-07T09:36:37.218Z,1002.90
2018-12-07T09:37:38.151Z,1002.84
2018-12-07T09:38:38.774Z,1002.80
2018-12-07T09:42:19.263Z,1002.85
2018-12-07T09:59:36.083Z,1002.36
2018-12-07T10:00:37.864Z,1002.22
2018-12-07T10:04:27.000Z,1002.35
2018-12-07T10:07:32.892Z,1002.27
2018-12-07T10:08:32.975Z,1002.26
2018-12-07T10:10:43.775Z,1002.20
2018-12-07T10:16:28.680Z,1002.00
2018-12-07T10:17:27.777Z,1002.10
2018-12-07T10:19:32.217Z,1001.98
2018-12-07T10:20:32.149Z,1001.91
2018-12-07T10:24:11.815Z,1001.75
2018-12-07T10:25:11.887Z,1001.88
2018-12-07T10:30:38.548Z,1001.61
2018-12-07T10:33:51.068Z,1001.64
2018-12-07T10:37:41.671Z,1001.60
2018-12-07T10:38:41.265Z,1001.63
2018-12-07T10:41:18.797Z,1001.63
2018-12-07T10:48:40.313Z,1001.48
2018-12-07T10:49:39.974Z,1001.38
2018-12-07T10:55:19.502Z,1001.23
2018-12-07T10:58:01.312Z,1001.18
2018-12-07T11:02:42.860Z,1001.05
2018-12-07T11:03:37.922Z,1001.15
2018-12-07T11:08:50.962Z,1000.96
2018-12-07T11:19:34.723Z,1000.56
2018-12-07T11:20:33.240Z,1000.58
2018-12-07T11:27:25.593Z,1000.34
2018-12-07T11:28:24.344Z,1000.39
2018-12-07T11:30:29.300Z,1000.29
2018-12-07T11:31:29.114Z,1000.30
2018-12-07T11:33:27.461Z,1000.24
2018-12-07T11:34:23.700Z,1000.20
2018-12-07T11:35:22.591Z,1000.20
2018-12-07T11:36:23.008Z,1000.30
2018-12-07T11:37:22.982Z,1000.11
2018-12-07T11:38:22.475Z,1000.19
2018-12-07T11:39:22.256Z,999.99
2018-12-07T11:40:22.465Z,1000.11
2018-12-07T11:41:22.456Z,999.95
2018-12-07T11:42:21.904Z,999.96
2018-12-07T11:43:40.889Z,999.97
2018-12-07T11:45:20.058Z,999.91
2018-12-07T11:48:20.679Z,999.65
2018-12-07T11:49:20.285Z,999.63
2018-12-07T11:51:16.957Z,999.56
2018-12-07T11:52:16.190Z,999.46
2018-12-07T11:54:21.219Z,999.32
2018-12-07T11:55:20.946Z,999.24
2018-12-07T11:56:22.521Z,999.26
2018-12-07T11:57:23.761Z,999.09
2018-12-07T11:58:21.614Z,999.11
2018-12-07T11:59:21.926Z,999.00
2018-12-07T12:00:20.402Z,998.91
2018-12-07T12:01:20.362Z,998.98
2018-12-07T12:02:26.378Z,998.84
2018-12-07T12:03:20.301Z,998.84
2018-12-07T12:04:20.340Z,998.79
2018-12-07T12:05:20.290Z,998.73
2018-12-07T12:06:20.218Z,998.76
2018-12-07T12:07:20.115Z,998.91
2018-12-07T12:08:20.169Z,998.68
2018-12-07T12:09:20.042Z,998.67
2018-12-07T12:10:21.703Z,998.65
2018-12-07T12:11:19.973Z,998.66
2018-12-07T12:12:19.981Z,998.57
2018-12-07T12:13:19.905Z,998.71
2018-12-07T12:14:19.878Z,998.60
2018-12-07T12:15:19.886Z,998.65
2018-12-07T12:16:19.868Z,998.46
2018-12-07T12:17:19.876Z,998.51
2018-12-07T12:18:19.840Z,998.44
2018-12-07T12:19:19.808Z,998.35
2018-12-07T12:20:19.698Z,998.46
2018-12-07T12:21:19.720Z,998.45
2018-12-07T12:22:19.638Z,998.36
2018-12-07T12:23:34.506Z,998.27
2018-12-07T12:27:04.591Z,998.13
2018-12-07T12:28:02.439Z,998.04
2018-12-07T12:31:43.375Z,997.82
2018-12-07T12:37:24.599Z,997.78
2018-12-07T12:42:08.637Z,997.46
2018-12-07T12:43:07.935Z,997.50
2018-12-07T12:53:35.459Z,997.28
2018-12-07T13:02:53.230Z,997.08
2018-12-07T13:03:53.016Z,996.95
2018-12-07T13:27:24.683Z,996.53
2018-12-07T13:28:26.403Z,996.66
2018-12-07T13:30:24.798Z,996.42
2018-12-07T13:38:16.901Z,996.29
2018-12-07T13:47:13.505Z,996.11
2018-12-07T13:48:15.180Z,996.09
2018-12-07T13:49:16.093Z,996.08
2018-12-07T13:50:09.979Z,996.05
2018-12-07T13:54:22.202Z,995.99
2018-12-07T13:55:18.521Z,995.97
2018-12-07T13:57:17.567Z,995.99
2018-12-07T13:58:15.484Z,995.99
2018-12-07T14:00:17.615Z,995.98
2018-12-07T14:01:35.951Z,996.09
2018-12-07T14:03:14.564Z,996.02
2018-12-07T14:04:13.295Z,996.01
2018-12-07T14:05:14.134Z,995.93
2018-12-07T14:06:13.195Z,995.81
2018-12-07T14:07:12.324Z,995.87
2018-12-07T14:08:11.953Z,995.85
2018-12-07T14:09:13.652Z,995.78
2018-12-07T14:10:12.791Z,995.74
2018-12-07T14:11:11.689Z,995.80
2018-12-07T14:12:11.590Z,995.75
2018-12-07T14:13:11.518Z,995.80
2018-12-07T14:14:11.626Z,995.63
2018-12-07T14:15:11.518Z,995.73
2018-12-07T14:16:11.522Z,995.58
2018-12-07T14:17:11.452Z,995.60
2018-12-07T14:18:11.412Z,995.59
2018-12-07T14:19:11.523Z,995.61
2018-12-07T14:20:11.375Z,995.60
2018-12-07T14:21:11.310Z,995.56
2018-12-07T14:22:11.185Z,995.48
2018-12-07T14:23:11.292Z,995.51
2018-12-07T14:24:11.213Z,995.46
2018-12-07T14:25:11.284Z,995.57
2018-12-07T14:26:11.306Z,995.57
2018-12-07T14:27:11.131Z,995.67
2018-12-07T14:28:11.019Z,995.55
2018-12-07T14:29:11.064Z,995.42
2018-12-07T14:30:11.023Z,995.50
2018-12-07T14:31:10.981Z,995.44
2018-12-07T14:32:11.040Z,995.42
2018-12-07T14:33:10.928Z,995.44
2018-12-07T14:34:10.939Z,995.38
2018-12-07T14:35:10.869Z,995.34
2018-12-07T14:36:11.139Z,995.37
2018-12-07T14:37:10.815Z,995.37
2018-12-07T14:38:10.680Z,995.26
2018-12-07T14:39:10.746Z,995.30
2018-12-07T14:40:10.832Z,995.25
2018-12-07T14:41:10.600Z,995.21
2018-12-07T14:42:10.840Z,995.23
2018-12-07T14:43:10.790Z,995.22
2018-12-07T14:44:10.723Z,995.10
2018-12-07T14:45:10.603Z,995.18
2018-12-07T14:46:10.526Z,995.13
2018-12-07T14:47:10.610Z,994.99
2018-12-07T14:48:10.460Z,994.97
2018-12-07T14:49:10.489Z,995.08
2018-12-07T14:50:10.577Z,995.03
2018-12-07T14:51:10.369Z,994.98
2018-12-07T14:52:10.408Z,994.93
2018-12-07T14:53:10.418Z,995.03
2018-12-07T14:54:10.384Z,994.91
2018-12-07T14:55:10.192Z,995.03
2018-12-07T14:56:10.383Z,994.90
2018-12-07T14:57:10.258Z,994.92
2018-12-07T14:58:10.122Z,994.91
2018-12-07T14:59:10.290Z,994.82
2018-12-07T15:00:10.121Z,994.69
2018-12-07T15:01:10.023Z,994.70
2018-12-07T15:02:10.216Z,994.70
2018-12-07T15:03:10.068Z,994.72
2018-12-07T15:04:10.016Z,994.82
2018-12-07T15:05:10.008Z,994.76
2018-12-07T15:06:09.968Z,994.66
2018-12-07T15:07:09.902Z,994.73
2018-12-07T15:08:09.881Z,994.58
2018-12-07T15:09:09.870Z,994.57
2018-12-07T15:10:09.895Z,994.97
2018-12-07T15:11:09.605Z,994.87
2018-12-07T15:12:09.830Z,994.80
2018-12-07T15:13:09.665Z,994.67
2018-12-07T15:14:09.558Z,994.61
2018-12-07T15:15:09.481Z,994.81
2018-12-07T15:16:09.458Z,994.65
2018-12-07T15:17:09.445Z,994.54
2018-12-07T15:18:09.522Z,994.32
2018-12-07T15:19:09.356Z,994.50
2018-12-07T15:20:09.424Z,994.41
2018-12-07T15:21:30.548Z,994.80
2018-12-07T15:23:18.851Z,994.49
2018-12-07T15:24:18.563Z,994.49
2018-12-07T15:26:30.075Z,994.42
2018-12-07T15:27:31.910Z,994.34
2018-12-07T15:29:35.161Z,994.43
2018-12-07T15:30:34.328Z,994.34
2018-12-07T15:32:34.786Z,994.36
2018-12-07T15:33:34.534Z,994.28
2018-12-07T15:35:40.770Z,994.27
2018-12-07T15:37:05.193Z,994.30
2018-12-07T15:39:03.006Z,994.18
2018-12-07T15:40:02.568Z,994.10
2018-12-07T15:41:02.160Z,994.11
2018-12-07T15:42:04.515Z,994.10
2018-12-07T15:47:28.334Z,994.08
2018-12-07T15:48:29.067Z,994.04
2018-12-07T15:50:34.082Z,993.96
2018-12-07T15:53:14.339Z,994.04
2018-12-07T15:54:15.303Z,993.89
2018-12-07T15:59:43.156Z,993.77
2018-12-07T16:00:42.457Z,993.88
2018-12-07T16:03:25.646Z,993.80
2018-12-07T16:05:40.614Z,993.61
2018-12-07T16:08:24.904Z,993.69
2018-12-07T16:11:35.021Z,993.59
2018-12-07T16:14:40.123Z,993.49
2018-12-07T16:15:40.150Z,993.47
2018-12-07T16:17:44.399Z,993.53
2018-12-07T16:18:43.864Z,993.48
2018-12-07T16:20:52.256Z,993.20
2018-12-07T16:21:51.716Z,993.12
2018-12-07T16:24:15.321Z,993.17
2018-12-07T16:24:58.375Z,993.12
2018-12-07T16:27:04.304Z,993.19
2018-12-07T16:28:04.332Z,993.25
2018-12-07T16:30:12.219Z,993.23
2018-12-07T16:31:11.639Z,993.16
2018-12-07T16:33:27.610Z,993.10
2018-12-07T16:34:48.892Z,993.13
2018-12-07T16:36:39.561Z,993.10
2018-12-07T16:37:33.898Z,993.08
2018-12-07T16:39:42.189Z,992.99
2018-12-07T16:40:41.795Z,993.04
2018-12-07T16:42:41.639Z,992.99
2018-12-07T16:43:41.685Z,992.96
2018-12-07T16:45:54.919Z,992.90
2018-12-07T16:46:55.785Z,992.85
2018-12-07T16:48:59.633Z,992.86
2018-12-07T16:49:59.401Z,992.80
2018-12-07T16:50:59.658Z,992.81
2018-12-07T16:51:59.214Z,992.73
2018-12-07T16:52:59.163Z,992.74
2018-12-07T16:53:58.740Z,992.76